Bismarck, ND (58501)

10:21 PM CST on February 07, 2016 (GMT -0600)
Pacific Avenue Bismarck | | Change Station
CLOSE
Current Station
Personal Weather Station
Location: Bismarck, ND
Elevation: 1722 ft
Nearby Weather Stations

Elev 1722 ft 46.83 °N, 100.75 °W | Updated 1 minute ago

Overcast
Overcast
27.9 °F
Feels Like 15 °F
N
18.1
Wind Variable Wind from West

Today
High -- | Low -- °F
--% Chance of Precip.
Yesterday
High -- | Low -- °F
Precip. -- in
Pressure 30.22 in
Visibility 10.0 miles
Clouds Mostly Cloudy 3900 ft
Windchill 15 °F
Dew Point 18 °F
Humidity 65%
Rainfall 3.19 in
Snow Depth Not available.
8:00 AM 5:55 PM
Waning Crescent, 0% visible
METAR KBIS 080352Z 33024G40KT 10SM BKN039 00/M08 A3016 RMK AO2 PK WND 34040/0254 SLP234 T00001078
Pressure 30.22 in
Visibility 10.0 miles
Clouds Mostly Cloudy 3900 ft
Windchill 15 °F
Dew Point 18 °F
Humidity 65%
Rainfall 3.19 in
Snow Depth Not available.
8:00 AM 5:55 PM
Waning Crescent, 0% visible
METAR KBIS 080352Z 33024G40KT 10SM BKN039 00/M08 A3016 RMK AO2 PK WND 34040/0254 SLP234 T00001078

10-Day Weather Forecast

Almanac

Astronomy

Feb. 07, 2016 Rise Set
Actual Time
Civil Twilight
Nautical Twilight
Astronomical Twilight
Moon
Length of Visible Light
Length of Day
Tomorrow will be .
, % of the Moon is Illuminated

Today's Extremes

State Highs State Lows

Community

WunderPhotos

Upload Photos

1,891,379 photos uploaded!

WunderBlog® & News

Nearby

Air Quality

  Air Quality AQ Index Pollutant
Not available.

Snow Depth

Station Depth Elevation

Earthquake Activity

City Distance Mag. Time & Date
Minimum magnitude displayed is 2.5.

Coastal Water Temperatures

Place Temperature

Stations

Nearby Weather Stations

Station Location Temp. Windchill Dew Point Humidity Wind Precip. Elev Updated Type
                   

Watches & Warnings

Wind Advisory
Issued: 7:51 PM MST Feb. 7, 2016 – National Weather Service

... Wind Advisory in effect until 6 am CST /5 am MST/ Monday...

The National Weather Service in Bismarck has issued a Wind
Advisory... which is in effect until 6 am CST /5 am MST/ Monday.
The High Wind Warning has been cancelled.

* Timing... through tonight.

* Winds... northwest winds gusting up to 45 mph... gradually
decreasing by early Monday morning.

* Impacts... travel will be difficult... especially for those
driving high profile vehicles.

Precautionary/preparedness actions...

Use extra caution and hang on to the wheel if you are driving.